Time;durP1;ratioP1;P1;durP2;ratioP2;P2;SDS_P1;SDS_P2;PMS_P1;PMS_P2;Temp;Humidity;BMP_temperature;BMP_pressure;BME280_temperature;BME280_humidity;BME280_pressure;Samples;Min_cycle;Max_cycle;Signal;HPM_P1;HPM_P2
2021/07/29 00:00:34;;;;;;;25.98;10.52;;;;;;;;;;5080210;28;20048;-58
2021/07/29 00:03:00;;;;;;;22.50;10.35;;;;;;;;;;5080625;28;20032;-59
2021/07/29 00:05:26;;;;;;;17.27;9.93;;;;;;;;;;5077835;28;20055;-57
2021/07/29 00:07:53;;;;;;;20.17;9.88;;;;;;;;;;5090442;28;20047;-54
2021/07/29 00:10:19;;;;;;;17.83;10.63;;;;;;;;;;5075477;28;20040;-55
2021/07/29 00:12:45;;;;;;;21.75;11.27;;;;;;;;;;5075680;28;20062;-56
2021/07/29 00:15:12;;;;;;;19.00;10.52;;;;;;;;;;5075004;28;20059;-57
2021/07/29 00:20:14;;;;;;;20.35;10.10;;;;;;;;;;5076734;28;20089;-55
2021/07/29 00:22:40;;;;;;;17.25;10.38;;;;;;;;;;5076776;28;20234;-56
2021/07/29 00:25:07;;;;;;;21.13;10.63;;;;;;;;;;5077405;28;20062;-57
2021/07/29 00:27:36;;;;;;;17.00;10.15;;;;;;;;;;5074574;28;20050;-58
2021/07/29 00:30:03;;;;;;;17.40;9.77;;;;;;;;;;5076651;28;20040;-57
2021/07/29 00:32:28;;;;;;;29.40;11.05;;;;;;;;;;5079143;28;20119;-57
2021/07/29 00:34:54;;;;;;;15.63;9.73;;;;;;;;;;5059058;28;20524;-56
2021/07/29 00:37:20;;;;;;;20.63;10.38;;;;;;;;;;5078849;28;20036;-56
2021/07/29 00:39:46;;;;;;;19.35;11.25;;;;;;;;;;5078435;28;20556;-56
2021/07/29 00:42:12;;;;;;;16.67;9.57;;;;;;;;;;5099805;28;20059;-56
2021/07/29 00:44:38;;;;;;;20.98;10.70;;;;;;;;;;5089511;28;20193;-56
2021/07/29 00:47:07;;;;;;;17.98;9.82;;;;;;;;;;5085301;28;20485;-56
2021/07/29 00:49:36;;;;;;;21.30;10.38;;;;;;;;;;5068968;28;20032;-56
2021/07/29 00:52:02;;;;;;;19.80;10.77;;;;;;;;;;5082721;28;20040;-56
2021/07/29 00:54:29;;;;;;;20.55;10.10;;;;;;;;;;5084133;28;20038;-56
2021/07/29 00:56:55;;;;;;;18.17;10.77;;;;;;;;;;5064018;28;20634;-56
2021/07/29 00:59:21;;;;;;;17.85;10.15;;;;;;;;;;5082668;28;20044;-56
2021/07/29 01:01:47;;;;;;;21.95;10.93;;;;;;;;;;5085327;28;20047;-57
2021/07/29 01:04:13;;;;;;;20.20;11.05;;;;;;;;;;5086318;28;20062;-56
2021/07/29 01:06:39;;;;;;;17.63;10.25;;;;;;;;;;5090035;28;20040;-58
2021/07/29 01:09:08;;;;;;;18.55;9.98;;;;;;;;;;5082629;28;20047;-56
2021/07/29 01:11:34;;;;;;;20.02;10.32;;;;;;;;;;5092386;28;20070;-56
2021/07/29 01:14:00;;;;;;;18.08;10.82;;;;;;;;;;5085927;28;20032;-56
2021/07/29 01:16:26;;;;;;;18.67;10.55;;;;;;;;;;5086687;28;20088;-57
2021/07/29 01:18:55;;;;;;;16.60;9.85;;;;;;;;;;5066590;28;20072;-55
2021/07/29 01:21:23;;;;;;;19.48;10.60;;;;;;;;;;5062384;28;20930;-57
2021/07/29 01:23:49;;;;;;;24.17;10.60;;;;;;;;;;5083026;28;20065;-56
2021/07/29 01:26:15;;;;;;;19.10;10.45;;;;;;;;;;5089702;28;20039;-56
2021/07/29 01:28:41;;;;;;;16.48;9.80;;;;;;;;;;5083738;28;20131;-56
2021/07/29 01:31:06;;;;;;;20.80;11.07;;;;;;;;;;5083388;28;20036;-56
2021/07/29 01:33:32;;;;;;;18.33;10.43;;;;;;;;;;5083509;28;20070;-56
2021/07/29 01:35:58;;;;;;;16.90;9.52;;;;;;;;;;5083842;28;20081;-53
2021/07/29 01:38:24;;;;;;;21.20;11.68;;;;;;;;;;5084227;28;20112;-58
2021/07/29 01:40:49;;;;;;;20.40;11.02;;;;;;;;;;5066514;28;20060;-56
2021/07/29 01:43:15;;;;;;;25.38;10.80;;;;;;;;;;5084480;28;20039;-55
2021/07/29 01:45:41;;;;;;;24.23;11.88;;;;;;;;;;5083401;28;20050;-58
2021/07/29 01:48:08;;;;;;;22.48;11.95;;;;;;;;;;5057496;28;20077;-56
2021/07/29 01:50:34;;;;;;;20.02;11.13;;;;;;;;;;5083182;28;20123;-58
2021/07/29 01:53:00;;;;;;;19.80;10.38;;;;;;;;;;5085561;28;20119;-57
2021/07/29 01:55:26;;;;;;;17.95;11.05;;;;;;;;;;5084646;28;20472;-56
2021/07/29 01:57:52;;;;;;;17.45;9.98;;;;;;;;;;5076965;28;20035;-56
2021/07/29 02:00:18;;;;;;;22.27;10.93;;;;;;;;;;5094145;28;20079;-58
2021/07/29 02:02:44;;;;;;;25.55;12.20;;;;;;;;;;5056281;28;20032;-59
2021/07/29 02:05:10;;;;;;;17.38;11.40;;;;;;;;;;5076043;28;20068;-56
2021/07/29 02:10:30;;;;;;;20.33;11.38;;;;;;;;;;5000962;28;20085;-56
2021/07/29 02:12:56;;;;;;;23.33;11.88;;;;;;;;;;5050706;28;20033;-57
2021/07/29 02:15:23;;;;;;;18.90;11.50;;;;;;;;;;5061512;28;20058;-58
2021/07/29 02:17:49;;;;;;;18.85;11.48;;;;;;;;;;5063678;28;20071;-57
2021/07/29 02:20:15;;;;;;;23.05;11.88;;;;;;;;;;5062373;28;20044;-57
2021/07/29 02:22:41;;;;;;;22.42;11.23;;;;;;;;;;5060032;28;20082;-60
2021/07/29 02:25:27;;;;;;;20.52;12.32;;;;;;;;;;5057903;28;20544;-58
2021/07/29 02:27:56;;;;;;;20.58;11.82;;;;;;;;;;5054812;28;20036;-53
2021/07/29 02:30:23;;;;;;;25.88;12.60;;;;;;;;;;5055354;28;20048;-57
2021/07/29 02:32:51;;;;;;;27.55;12.95;;;;;;;;;;5021129;28;20036;-57
2021/07/29 02:35:17;;;;;;;24.40;12.00;;;;;;;;;;5051381;28;20109;-56
2021/07/29 02:37:43;;;;;;;20.35;11.95;;;;;;;;;;5029737;28;20048;-56
2021/07/29 02:40:09;;;;;;;23.45;12.32;;;;;;;;;;5050001;28;20148;-54
2021/07/29 02:42:36;;;;;;;22.33;12.43;;;;;;;;;;5035620;28;20040;-58
2021/07/29 02:45:02;;;;;;;26.08;12.80;;;;;;;;;;5049848;28;20048;-56
2021/07/29 02:47:28;;;;;;;21.52;12.60;;;;;;;;;;5035642;28;20032;-55
2021/07/29 02:49:54;;;;;;;28.35;12.63;;;;;;;;;;5053443;28;20058;-57
2021/07/29 02:52:20;;;;;;;24.13;13.27;;;;;;;;;;5050501;28;20041;-56
2021/07/29 02:54:47;;;;;;;20.85;12.80;;;;;;;;;;5053727;28;20081;-54
2021/07/29 02:57:15;;;;;;;27.75;14.23;;;;;;;;;;5056796;28;20045;-56
2021/07/29 02:59:40;;;;;;;25.23;13.18;;;;;;;;;;5050877;28;20580;-57
2021/07/29 03:02:06;;;;;;;22.88;13.35;;;;;;;;;;5056597;28;20093;-57
2021/07/29 03:04:32;;;;;;;29.45;13.45;;;;;;;;;;5064396;28;20048;-56
2021/07/29 03:07:31;;;;;;;21.25;12.43;;;;;;;;;;5043868;28;22439;-63
2021/07/29 03:10:13;;;;;;;26.25;13.93;;;;;;;;;;5038290;28;20171;-58
2021/07/29 03:12:56;;;;;;;21.67;12.23;;;;;;;;;;5006021;28;20056;-57
2021/07/29 03:15:21;;;;;;;23.88;12.90;;;;;;;;;;5011566;28;20038;-57
2021/07/29 03:17:47;;;;;;;21.50;12.65;;;;;;;;;;5022909;28;20045;-59
2021/07/29 03:20:15;;;;;;;27.35;12.73;;;;;;;;;;5018461;28;20502;-59
2021/07/29 03:22:40;;;;;;;23.00;11.02;;;;;;;;;;5014840;28;20068;-57
2021/07/29 03:25:06;;;;;;;24.85;12.75;;;;;;;;;;5035688;28;20270;-57
2021/07/29 03:27:41;;;;;;;26.27;13.05;;;;;;;;;;5007075;28;20037;-61
2021/07/29 03:30:08;;;;;;;24.80;12.90;;;;;;;;;;5035680;28;20065;-57
2021/07/29 03:33:21;;;;;;;22.90;12.85;;;;;;;;;;5025176;28;20041;-58
2021/07/29 03:35:48;;;;;;;22.55;12.05;;;;;;;;;;4968679;28;20108;-57
2021/07/29 03:38:14;;;;;;;21.50;11.82;;;;;;;;;;5018413;28;20037;-57
2021/07/29 03:40:40;;;;;;;22.58;10.95;;;;;;;;;;5031930;28;20089;-58
2021/07/29 03:43:07;;;;;;;28.77;12.00;;;;;;;;;;5041694;28;20066;-57
2021/07/29 03:45:34;;;;;;;20.48;11.40;;;;;;;;;;5057913;28;20053;-57
2021/07/29 03:48:01;;;;;;;27.33;12.38;;;;;;;;;;5060344;28;20090;-57
2021/07/29 03:50:27;;;;;;;21.50;12.10;;;;;;;;;;5033833;28;20084;-57
2021/07/29 03:52:53;;;;;;;22.50;12.60;;;;;;;;;;5032540;28;20450;-59
2021/07/29 03:55:20;;;;;;;27.33;12.75;;;;;;;;;;5038272;28;20032;-57
2021/07/29 03:57:46;;;;;;;23.05;12.57;;;;;;;;;;5017092;28;20053;-57
2021/07/29 04:00:12;;;;;;;28.77;12.60;;;;;;;;;;5029127;28;20929;-57
2021/07/29 04:02:39;;;;;;;25.65;12.13;;;;;;;;;;5030713;28;20049;-58
2021/07/29 04:05:05;;;;;;;23.33;12.20;;;;;;;;;;5026500;28;20029;-55
2021/07/29 04:07:32;;;;;;;20.05;12.27;;;;;;;;;;5053585;28;20040;-56
2021/07/29 04:09:58;;;;;;;28.20;12.95;;;;;;;;;;5050126;28;20409;-57
2021/07/29 04:12:24;;;;;;;24.17;11.90;;;;;;;;;;5052728;28;20037;-57
2021/07/29 04:14:50;;;;;;;24.25;13.20;;;;;;;;;;5054579;28;20041;-57
2021/07/29 04:17:18;;;;;;;23.85;13.32;;;;;;;;;;5051440;28;20059;-57
2021/07/29 04:19:44;;;;;;;27.83;13.98;;;;;;;;;;5051810;28;20135;-57
2021/07/29 04:22:11;;;;;;;27.83;15.35;;;;;;;;;;5049278;28;20036;-56
2021/07/29 04:24:37;;;;;;;23.98;13.50;;;;;;;;;;5051320;28;20048;-56
2021/07/29 04:27:03;;;;;;;26.00;13.52;;;;;;;;;;5051814;28;20059;-56
2021/07/29 04:29:32;;;;;;;28.02;13.50;;;;;;;;;;5051663;28;20041;-57
2021/07/29 04:31:58;;;;;;;25.73;12.93;;;;;;;;;;5052231;28;20049;-54
2021/07/29 04:34:25;;;;;;;24.45;12.07;;;;;;;;;;5053369;28;20037;-56
2021/07/29 04:36:52;;;;;;;22.80;12.35;;;;;;;;;;5051175;28;20048;-54
2021/07/29 04:39:18;;;;;;;21.52;12.35;;;;;;;;;;5050531;28;20069;-53
2021/07/29 04:41:44;;;;;;;22.88;12.95;;;;;;;;;;5054275;28;20072;-57
2021/07/29 04:44:14;;;;;;;21.65;12.45;;;;;;;;;;5052877;28;20029;-55
2021/07/29 04:46:40;;;;;;;19.10;12.45;;;;;;;;;;5055712;28;20036;-54
2021/07/29 04:49:08;;;;;;;25.63;12.52;;;;;;;;;;5059869;28;20858;-57
2021/07/29 04:51:34;;;;;;;23.08;13.13;;;;;;;;;;5059207;28;20044;-56
2021/07/29 04:54:00;;;;;;;27.25;12.45;;;;;;;;;;5055436;28;20078;-56
2021/07/29 04:56:26;;;;;;;24.80;12.38;;;;;;;;;;5056439;28;20106;-54
2021/07/29 04:58:52;;;;;;;24.38;12.77;;;;;;;;;;5060377;28;20097;-55
2021/07/29 05:01:18;;;;;;;24.88;13.18;;;;;;;;;;5060789;28;20045;-56
2021/07/29 05:03:44;;;;;;;22.70;12.10;;;;;;;;;;5063061;28;20088;-56
2021/07/29 05:06:10;;;;;;;27.48;12.63;;;;;;;;;;5058448;28;20056;-57
2021/07/29 05:08:36;;;;;;;21.23;11.55;;;;;;;;;;5063838;27;20064;-56
2021/07/29 05:11:03;;;;;;;26.42;11.55;;;;;;;;;;5062411;28;20503;-56
2021/07/29 05:13:29;;;;;;;23.58;12.88;;;;;;;;;;5061507;28;20060;-55
2021/07/29 05:15:55;;;;;;;23.10;12.02;;;;;;;;;;5059506;28;20438;-56
2021/07/29 05:18:20;;;;;;;24.52;11.90;;;;;;;;;;5060157;28;20043;-56
2021/07/29 05:20:46;;;;;;;25.88;12.73;;;;;;;;;;5060704;28;20078;-56
2021/07/29 05:23:13;;;;;;;23.45;11.77;;;;;;;;;;5058387;28;20041;-55
2021/07/29 05:25:39;;;;;;;31.17;11.52;;;;;;;;;;5058019;28;20478;-56
2021/07/29 05:28:05;;;;;;;19.25;11.23;;;;;;;;;;5059796;28;20040;-54
2021/07/29 05:30:30;;;;;;;24.58;11.80;;;;;;;;;;5056739;28;20599;-54
2021/07/29 05:32:57;;;;;;;24.27;12.23;;;;;;;;;;5058302;28;20043;-56
2021/07/29 05:35:23;;;;;;;27.92;12.27;;;;;;;;;;5059114;28;20036;-55
2021/07/29 05:37:49;;;;;;;31.48;13.13;;;;;;;;;;5059365;28;20048;-56
2021/07/29 05:40:15;;;;;;;22.38;11.88;;;;;;;;;;5060437;28;20073;-57
2021/07/29 05:42:40;;;;;;;25.55;12.73;;;;;;;;;;5059616;28;20041;-55
2021/07/29 05:45:06;;;;;;;25.38;12.25;;;;;;;;;;5059563;28;20032;-56
2021/07/29 05:47:32;;;;;;;25.73;12.95;;;;;;;;;;5056774;28;20044;-54
2021/07/29 05:49:58;;;;;;;26.85;13.52;;;;;;;;;;5059140;28;20042;-57
2021/07/29 05:52:24;;;;;;;29.65;13.13;;;;;;;;;;5055976;28;20037;-55
2021/07/29 05:54:49;;;;;;;27.60;13.13;;;;;;;;;;5057381;28;20383;-56
2021/07/29 05:57:15;;;;;;;24.20;12.65;;;;;;;;;;5058893;28;20055;-57
2021/07/29 05:59:47;;;;;;;24.08;12.98;;;;;;;;;;5052465;28;20058;-59
2021/07/29 06:02:12;;;;;;;28.20;14.27;;;;;;;;;;5050835;28;20050;-53
2021/07/29 06:04:41;;;;;;;23.75;12.70;;;;;;;;;;5067550;28;20086;-59
2021/07/29 06:07:07;;;;;;;26.85;13.73;;;;;;;;;;5044759;28;20557;-56
2021/07/29 06:09:33;;;;;;;25.05;13.18;;;;;;;;;;5064100;28;20128;-52
2021/07/29 06:11:59;;;;;;;26.85;12.55;;;;;;;;;;5057753;28;20102;-57
2021/07/29 06:14:25;;;;;;;27.88;13.50;;;;;;;;;;5055191;28;21154;-55
2021/07/29 06:16:51;;;;;;;28.45;13.73;;;;;;;;;;5057569;28;20509;-56
2021/07/29 06:19:18;;;;;;;27.50;12.57;;;;;;;;;;5057712;28;20037;-56
2021/07/29 06:21:44;;;;;;;26.35;12.93;;;;;;;;;;5056360;28;20044;-55
2021/07/29 06:24:10;;;;;;;30.80;13.18;;;;;;;;;;5057598;28;20505;-57
2021/07/29 06:26:37;;;;;;;27.25;12.23;;;;;;;;;;5056134;28;20112;-53
2021/07/29 06:29:04;;;;;;;28.70;12.75;;;;;;;;;;5057910;28;20615;-55
2021/07/29 06:31:30;;;;;;;40.00;14.23;;;;;;;;;;5057387;28;20033;-55
2021/07/29 06:33:56;;;;;;;22.58;12.55;;;;;;;;;;5057689;28;20493;-55
2021/07/29 06:36:22;;;;;;;29.23;13.82;;;;;;;;;;5054610;28;20123;-56
2021/07/29 06:38:47;;;;;;;25.08;13.57;;;;;;;;;;5056711;28;20552;-55
2021/07/29 06:41:13;;;;;;;24.63;13.88;;;;;;;;;;5057226;28;20063;-54
2021/07/29 06:43:39;;;;;;;24.85;13.32;;;;;;;;;;5057230;28;20174;-53
2021/07/29 06:46:06;;;;;;;25.08;13.10;;;;;;;;;;5057749;28;20028;-58
2021/07/29 06:48:32;;;;;;;23.60;13.15;;;;;;;;;;5053658;28;20663;-56
2021/07/29 06:51:02;;;;;;;27.27;14.18;;;;;;;;;;5055939;28;20071;-56
2021/07/29 06:53:28;;;;;;;25.40;13.18;;;;;;;;;;5056037;28;20551;-55
2021/07/29 06:55:54;;;;;;;23.35;13.30;;;;;;;;;;5055191;28;20044;-55
2021/07/29 06:58:21;;;;;;;25.80;13.05;;;;;;;;;;5056239;28;20846;-54
2021/07/29 07:00:47;;;;;;;28.98;15.02;;;;;;;;;;5056984;28;20053;-53
2021/07/29 07:03:13;;;;;;;29.25;14.13;;;;;;;;;;5056155;28;20040;-55
2021/07/29 07:05:45;;;;;;;31.65;14.25;;;;;;;;;;5055193;28;20135;-55
2021/07/29 07:08:10;;;;;;;26.45;14.50;;;;;;;;;;5053303;28;20090;-52
2021/07/29 07:10:36;;;;;;;30.00;14.57;;;;;;;;;;5068226;28;20400;-56
2021/07/29 07:13:02;;;;;;;23.92;14.15;;;;;;;;;;5066541;28;20040;-55
2021/07/29 07:15:28;;;;;;;27.92;13.75;;;;;;;;;;5052326;28;20040;-55
2021/07/29 07:17:55;;;;;;;23.98;14.43;;;;;;;;;;5055797;28;20044;-57
2021/07/29 07:20:20;;;;;;;27.35;14.38;;;;;;;;;;5033770;28;20675;-53
2021/07/29 07:22:46;;;;;;;26.63;13.82;;;;;;;;;;5054977;28;20032;-53
2021/07/29 07:25:12;;;;;;;25.75;14.55;;;;;;;;;;5054046;28;20052;-55
2021/07/29 07:27:38;;;;;;;23.38;12.82;;;;;;;;;;5054155;28;20062;-55
2021/07/29 07:30:04;;;;;;;27.60;13.90;;;;;;;;;;5055676;28;20389;-54
2021/07/29 07:32:30;;;;;;;21.95;11.85;;;;;;;;;;5053989;28;20096;-55
2021/07/29 07:34:56;;;;;;;23.45;12.48;;;;;;;;;;5055009;28;20503;-55
2021/07/29 07:37:22;;;;;;;21.85;11.88;;;;;;;;;;5051722;28;20536;-55
2021/07/29 07:39:48;;;;;;;25.52;12.13;;;;;;;;;;5054567;28;20068;-55
2021/07/29 07:42:14;;;;;;;24.13;11.88;;;;;;;;;;5054462;28;21001;-54
2021/07/29 07:44:40;;;;;;;20.42;11.57;;;;;;;;;;5054193;28;20045;-53
2021/07/29 07:47:05;;;;;;;28.58;12.13;;;;;;;;;;5054149;28;20043;-54
2021/07/29 07:49:33;;;;;;;23.67;12.35;;;;;;;;;;5053903;28;20036;-52
2021/07/29 07:51:59;;;;;;;19.63;11.18;;;;;;;;;;5054038;28;20040;-55
2021/07/29 07:54:25;;;;;;;26.48;11.95;;;;;;;;;;5053389;28;20737;-55
2021/07/29 07:56:50;;;;;;;17.08;10.40;;;;;;;;;;5053496;28;20098;-57
2021/07/29 07:59:16;;;;;;;20.95;11.38;;;;;;;;;;5054377;28;20562;-56
2021/07/29 08:01:44;;;;;;;24.08;11.85;;;;;;;;;;5053658;28;20044;-57
2021/07/29 08:04:10;;;;;;;23.73;12.02;;;;;;;;;;5054974;28;20056;-54
2021/07/29 08:06:36;;;;;;;24.80;11.07;;;;;;;;;;5052547;28;20470;-55
2021/07/29 08:09:05;;;;;;;20.90;11.57;;;;;;;;;;5054296;28;20040;-56
2021/07/29 08:11:31;;;;;;;25.02;11.07;;;;;;;;;;5053341;28;20457;-56
2021/07/29 08:13:57;;;;;;;21.08;10.65;;;;;;;;;;5054129;28;20090;-57
2021/07/29 08:16:22;;;;;;;18.60;10.75;;;;;;;;;;5051563;28;20029;-55
2021/07/29 08:18:50;;;;;;;18.98;10.85;;;;;;;;;;5052483;28;20041;-57
2021/07/29 08:21:16;;;;;;;19.92;11.23;;;;;;;;;;5052577;28;20590;-56
2021/07/29 08:23:42;;;;;;;21.83;10.93;;;;;;;;;;5057054;28;20036;-57
2021/07/29 08:26:10;;;;;;;21.10;10.65;;;;;;;;;;5067714;28;20615;-56
2021/07/29 08:28:40;;;;;;;21.10;10.93;;;;;;;;;;5053529;28;20066;-56
2021/07/29 08:31:06;;;;;;;20.40;10.85;;;;;;;;;;5050941;28;20074;-55
2021/07/29 08:33:32;;;;;;;17.40;10.15;;;;;;;;;;5055138;28;20542;-56
2021/07/29 08:35:58;;;;;;;21.25;11.32;;;;;;;;;;5054158;28;20086;-56
2021/07/29 08:38:24;;;;;;;23.10;10.80;;;;;;;;;;5055147;28;20366;-54
2021/07/29 08:40:52;;;;;;;21.25;11.60;;;;;;;;;;5056144;28;20057;-54
2021/07/29 08:43:18;;;;;;;20.42;11.27;;;;;;;;;;5055457;28;20037;-56
2021/07/29 08:45:44;;;;;;;20.27;11.02;;;;;;;;;;5054413;28;20446;-56
2021/07/29 08:48:10;;;;;;;19.67;10.68;;;;;;;;;;5056739;28;20581;-56
2021/07/29 08:50:36;;;;;;;22.45;11.45;;;;;;;;;;5053722;28;20040;-56
2021/07/29 08:53:02;;;;;;;21.92;11.23;;;;;;;;;;5054279;28;20037;-56
2021/07/29 08:55:28;;;;;;;20.23;11.43;;;;;;;;;;5053958;28;20494;-56
2021/07/29 08:57:54;;;;;;;19.88;11.20;;;;;;;;;;5054737;28;20139;-56
2021/07/29 09:00:20;;;;;;;25.40;11.60;;;;;;;;;;5057476;28;20053;-55
2021/07/29 09:02:46;;;;;;;20.10;10.93;;;;;;;;;;5059763;28;20063;-56
2021/07/29 09:05:11;;;;;;;21.52;10.82;;;;;;;;;;5059950;28;20114;-56
2021/07/29 09:07:38;;;;;;;25.45;11.45;;;;;;;;;;5059356;28;20044;-55
2021/07/29 09:10:24;;;;;;;19.00;11.05;;;;;;;;;;5060804;28;20047;-56
2021/07/29 09:13:06;;;;;;;21.42;11.73;;;;;;;;;;5065108;28;20083;-56
2021/07/29 09:15:32;;;;;;;21.42;11.57;;;;;;;;;;5057285;28;20139;-56
2021/07/29 09:17:58;;;;;;;20.45;11.32;;;;;;;;;;5057444;28;20490;-56
2021/07/29 09:20:23;;;;;;;20.67;11.82;;;;;;;;;;5057420;28;20048;-56
2021/07/29 09:22:52;;;;;;;21.00;11.00;;;;;;;;;;5056526;28;20043;-56
2021/07/29 09:25:20;;;;;;;20.05;11.10;;;;;;;;;;5056137;28;20033;-56
2021/07/29 09:27:50;;;;;;;22.42;10.80;;;;;;;;;;5057931;28;20043;-57
2021/07/29 09:30:18;;;;;;;19.08;10.52;;;;;;;;;;5057608;28;20473;-56
2021/07/29 09:33:04;;;;;;;21.13;10.50;;;;;;;;;;5057611;28;20508;-56
2021/07/29 09:35:33;;;;;;;20.17;10.82;;;;;;;;;;5055489;28;20055;-56
2021/07/29 09:38:00;;;;;;;19.52;11.50;;;;;;;;;;5057865;28;20101;-57
2021/07/29 09:40:26;;;;;;;27.65;11.18;;;;;;;;;;5055457;28;20593;-55
2021/07/29 09:43:09;;;;;;;29.42;11.35;;;;;;;;;;5057504;28;20037;-56
2021/07/29 09:45:35;;;;;;;24.60;11.15;;;;;;;;;;5055081;28;20048;-54
2021/07/29 09:48:02;;;;;;;21.38;11.02;;;;;;;;;;5058833;28;20037;-55
2021/07/29 09:50:27;;;;;;;27.30;12.50;;;;;;;;;;5055884;28;20440;-57
2021/07/29 09:52:54;;;;;;;23.27;11.38;;;;;;;;;;5057244;28;20037;-56
2021/07/29 09:55:21;;;;;;;27.45;12.95;;;;;;;;;;5054819;28;20658;-56
2021/07/29 09:57:47;;;;;;;27.92;12.30;;;;;;;;;;5056489;28;21932;-57
2021/07/29 10:00:13;;;;;;;26.27;12.45;;;;;;;;;;5056528;28;20059;-56
2021/07/29 10:02:39;;;;;;;22.60;12.95;;;;;;;;;;5056373;28;20049;-55
2021/07/29 10:05:06;;;;;;;26.60;12.38;;;;;;;;;;5054866;28;20794;-56
2021/07/29 10:07:34;;;;;;;24.85;12.43;;;;;;;;;;5055774;28;20063;-56
2021/07/29 10:10:02;;;;;;;26.58;12.93;;;;;;;;;;5055932;28;20835;-57
2021/07/29 10:12:30;;;;;;;24.77;12.32;;;;;;;;;;5055802;28;20040;-57
2021/07/29 10:14:57;;;;;;;22.65;11.60;;;;;;;;;;5055528;28;20067;-53
2021/07/29 10:17:46;;;;;;;25.88;12.82;;;;;;;;;;5055078;28;20044;-54
2021/07/29 10:20:12;;;;;;;29.92;12.63;;;;;;;;;;5047336;28;20067;-56
2021/07/29 10:22:38;;;;;;;25.50;12.38;;;;;;;;;;5053076;28;20037;-57
2021/07/29 10:25:04;;;;;;;22.75;12.30;;;;;;;;;;5054848;28;20127;-56
2021/07/29 10:27:30;;;;;;;26.55;12.65;;;;;;;;;;5055143;28;20040;-56
2021/07/29 10:30:15;;;;;;;23.13;12.27;;;;;;;;;;5055915;28;20393;-57
2021/07/29 10:32:47;;;;;;;23.60;11.98;;;;;;;;;;5054763;28;20041;-56
2021/07/29 10:35:31;;;;;;;26.63;12.32;;;;;;;;;;5055953;28;20047;-56
2021/07/29 10:37:58;;;;;;;21.25;11.98;;;;;;;;;;5075127;28;20067;-54
2021/07/29 10:40:34;;;;;;;24.40;12.00;;;;;;;;;;5075005;28;20040;-56
2021/07/29 10:43:39;;;;;;;26.65;12.57;;;;;;;;;;5076057;28;20143;-54
2021/07/29 10:46:05;;;;;;;26.55;12.45;;;;;;;;;;4984989;28;20229;-55
2021/07/29 10:48:40;;;;;;;25.63;12.32;;;;;;;;;;4984579;28;20503;-56
2021/07/29 10:51:13;;;;;;;23.27;12.88;;;;;;;;;;5033241;28;20043;-57
2021/07/29 10:53:42;;;;;;;26.90;12.93;;;;;;;;;;5075369;28;20040;-57
2021/07/29 10:56:08;;;;;;;20.85;11.75;;;;;;;;;;5074453;28;20064;-55
2021/07/29 10:58:47;;;;;;;22.65;12.18;;;;;;;;;;5074320;28;20512;-56
2021/07/29 11:01:14;;;;;;;21.35;11.98;;;;;;;;;;5074780;28;20079;-56
2021/07/29 11:03:54;;;;;;;25.33;12.93;;;;;;;;;;5074699;28;20385;-56
2021/07/29 11:06:24;;;;;;;23.00;12.02;;;;;;;;;;5074384;28;20036;-53
2021/07/29 11:08:50;;;;;;;25.45;11.95;;;;;;;;;;5074740;28;20037;-56
2021/07/29 11:11:16;;;;;;;25.50;13.20;;;;;;;;;;5074359;28;20043;-56
2021/07/29 11:13:45;;;;;;;23.42;12.48;;;;;;;;;;5074511;28;20719;-56
2021/07/29 11:16:11;;;;;;;27.02;13.32;;;;;;;;;;5075130;28;20047;-53
2021/07/29 11:18:37;;;;;;;30.35;13.07;;;;;;;;;;5073698;28;20404;-53
2021/07/29 11:21:15;;;;;;;33.50;13.98;;;;;;;;;;5074568;28;20056;-55
2021/07/29 11:23:41;;;;;;;28.27;13.13;;;;;;;;;;5073812;28;20089;-55
2021/07/29 11:26:07;;;;;;;27.23;14.40;;;;;;;;;;5074002;28;20462;-55
2021/07/29 11:28:33;;;;;;;26.48;13.35;;;;;;;;;;5070400;28;20043;-54
2021/07/29 11:30:59;;;;;;;24.20;12.57;;;;;;;;;;5043393;28;20848;-54
2021/07/29 11:33:26;;;;;;;24.67;12.90;;;;;;;;;;5070634;28;20043;-56
2021/07/29 11:35:53;;;;;;;24.67;12.82;;;;;;;;;;5074002;28;20154;-56
2021/07/29 11:38:20;;;;;;;32.78;14.48;;;;;;;;;;5072755;28;20699;-55
2021/07/29 11:40:48;;;;;;;29.95;14.30;;;;;;;;;;5073409;28;20056;-56
2021/07/29 11:43:23;;;;;;;25.65;14.57;;;;;;;;;;5051856;28;20044;-53
2021/07/29 11:45:49;;;;;;;28.40;14.68;;;;;;;;;;5072822;28;20040;-54
2021/07/29 11:48:22;;;;;;;28.90;14.82;;;;;;;;;;5062440;28;20452;-55
2021/07/29 11:50:48;;;;;;;26.88;15.18;;;;;;;;;;5064296;28;20127;-53
2021/07/29 11:53:14;;;;;;;28.27;14.82;;;;;;;;;;5066575;28;20045;-56
2021/07/29 11:55:41;;;;;;;27.65;15.13;;;;;;;;;;5053031;28;20048;-56
2021/07/29 11:58:07;;;;;;;30.52;15.18;;;;;;;;;;5054911;28;20071;-56
2021/07/29 12:00:33;;;;;;;30.55;15.80;;;;;;;;;;5052456;28;20483;-57
2021/07/29 12:03:00;;;;;;;27.75;15.35;;;;;;;;;;5053891;28;20041;-53
2021/07/29 12:05:27;;;;;;;27.95;15.02;;;;;;;;;;5052915;28;20052;-55
2021/07/29 12:07:53;;;;;;;31.13;15.55;;;;;;;;;;5054595;28;20028;-56
2021/07/29 12:10:21;;;;;;;27.35;14.30;;;;;;;;;;5059336;28;20040;-54
2021/07/29 12:12:47;;;;;;;27.70;15.85;;;;;;;;;;5053991;28;20040;-56
2021/07/29 12:15:14;;;;;;;28.33;16.15;;;;;;;;;;5052709;28;20044;-53
2021/07/29 12:17:39;;;;;;;26.52;14.73;;;;;;;;;;5053320;28;20071;-56
2021/07/29 12:20:06;;;;;;;27.13;15.80;;;;;;;;;;5055164;28;20052;-55
2021/07/29 12:22:34;;;;;;;28.73;15.32;;;;;;;;;;5055420;28;20032;-56
2021/07/29 12:25:02;;;;;;;29.38;16.13;;;;;;;;;;5055689;28;20053;-56
2021/07/29 12:27:41;;;;;;;36.03;15.57;;;;;;;;;;5055864;28;20044;-55
2021/07/29 12:30:26;;;;;;;27.63;15.32;;;;;;;;;;5051771;28;20040;-58
2021/07/29 12:33:11;;;;;;;27.98;15.35;;;;;;;;;;5076175;28;20386;-57
2021/07/29 12:35:37;;;;;;;29.35;15.02;;;;;;;;;;5066400;28;20028;-57
2021/07/29 12:38:03;;;;;;;30.95;15.30;;;;;;;;;;5058473;28;20630;-55
2021/07/29 12:40:33;;;;;;;32.63;14.82;;;;;;;;;;5059144;28;20066;-57
2021/07/29 12:43:17;;;;;;;28.00;14.95;;;;;;;;;;5060035;28;20040;-57
2021/07/29 12:46:04;;;;;;;26.60;14.93;;;;;;;;;;5067298;28;20043;-56
2021/07/29 12:48:31;;;;;;;27.92;14.82;;;;;;;;;;5064832;28;20035;-57
2021/07/29 12:50:57;;;;;;;30.25;14.82;;;;;;;;;;5063557;28;20045;-56
2021/07/29 12:53:24;;;;;;;35.55;15.02;;;;;;;;;;5064459;28;20066;-56
2021/07/29 12:55:51;;;;;;;30.65;15.15;;;;;;;;;;5071108;28;20056;-56
2021/07/29 12:58:17;;;;;;;31.35;15.00;;;;;;;;;;5063293;28;20047;-57
2021/07/29 13:00:47;;;;;;;38.17;15.77;;;;;;;;;;5061921;28;20645;-56
2021/07/29 13:03:17;;;;;;;32.58;16.08;;;;;;;;;;5061153;28;20116;-56
2021/07/29 13:05:43;;;;;;;34.08;16.48;;;;;;;;;;5061934;28;20093;-57
2021/07/29 13:08:08;;;;;;;25.63;16.50;;;;;;;;;;5063084;28;20044;-57
2021/07/29 13:10:34;;;;;;;28.58;14.95;;;;;;;;;;5062235;28;20518;-56
2021/07/29 13:13:00;;;;;;;31.35;16.48;;;;;;;;;;5059943;28;21214;-57
2021/07/29 13:15:27;;;;;;;29.48;15.30;;;;;;;;;;5058737;28;20033;-55
2021/07/29 13:17:53;;;;;;;33.63;16.33;;;;;;;;;;5058471;28;20114;-57
2021/07/29 13:20:19;;;;;;;35.00;16.75;;;;;;;;;;5057362;28;20635;-57
2021/07/29 13:22:46;;;;;;;31.15;16.45;;;;;;;;;;5058970;28;20512;-55
2021/07/29 13:25:12;;;;;;;30.65;15.27;;;;;;;;;;5059463;28;20040;-57
2021/07/29 13:27:37;;;;;;;34.45;14.65;;;;;;;;;;5057725;28;20063;-57
2021/07/29 13:30:04;;;;;;;31.50;17.15;;;;;;;;;;5058372;28;20040;-57
2021/07/29 13:32:30;;;;;;;26.67;15.90;;;;;;;;;;5058084;28;20040;-56
2021/07/29 13:34:55;;;;;;;36.08;16.92;;;;;;;;;;5059846;28;20116;-57
2021/07/29 13:37:21;;;;;;;32.90;17.10;;;;;;;;;;5082513;28;20158;-58
2021/07/29 13:39:47;;;;;;;37.30;21.83;;;;;;;;;;5061885;28;20064;-57
2021/07/29 13:42:14;;;;;;;36.85;19.52;;;;;;;;;;5061806;28;20044;-58
2021/07/29 13:44:44;;;;;;;38.25;20.55;;;;;;;;;;5059217;28;20056;-57
2021/07/29 13:47:10;;;;;;;33.55;18.27;;;;;;;;;;5060654;28;20036;-58
2021/07/29 13:49:36;;;;;;;31.75;18.58;;;;;;;;;;5077889;28;20032;-57
2021/07/29 13:52:02;;;;;;;37.55;19.08;;;;;;;;;;5066077;28;20789;-57
2021/07/29 13:54:28;;;;;;;35.88;19.27;;;;;;;;;;5059736;28;20044;-58
2021/07/29 13:56:53;;;;;;;45.60;21.02;;;;;;;;;;5062569;28;21065;-58
2021/07/29 13:59:19;;;;;;;39.20;20.65;;;;;;;;;;5059072;28;20040;-57
2021/07/29 14:01:45;;;;;;;40.20;21.63;;;;;;;;;;5059734;28;20510;-57
2021/07/29 14:04:11;;;;;;;37.17;21.75;;;;;;;;;;5061188;28;20037;-58
2021/07/29 14:06:37;;;;;;;44.60;24.15;;;;;;;;;;5057308;28;20036;-57
2021/07/29 14:09:03;;;;;;;44.75;25.10;;;;;;;;;;5060394;28;20078;-57
2021/07/29 14:11:29;;;;;;;41.38;24.85;;;;;;;;;;5070257;28;20035;-57
2021/07/29 14:13:56;;;;;;;39.42;23.70;;;;;;;;;;5060249;28;20083;-56
2021/07/29 14:16:22;;;;;;;42.88;25.42;;;;;;;;;;5057627;28;20044;-57
2021/07/29 14:18:50;;;;;;;41.05;25.17;;;;;;;;;;5058582;28;20037;-57
2021/07/29 14:21:29;;;;;;;46.78;26.67;;;;;;;;;;5058157;28;20402;-56
2021/07/29 14:23:55;;;;;;;52.35;27.50;;;;;;;;;;5058097;28;20829;-55
2021/07/29 14:26:21;;;;;;;48.65;26.98;;;;;;;;;;5056368;28;20182;-58